KTMBKEYW

Guest
Details From KTMB - Miami Executive Airport
To KEYW - Key West Intl
Flight Number -
Tags generated
Created
Modified
Stats Distance 99 nm / 183 km
Max Altitude 4,000 ft / 1,219 m
Waypoints 3
Social Downloads 9
Likes 0
Share

Download

Looking for another format? Having issues loading an existing format? Contact us
Advertisement - Login to hide

Notes

Basic altitude profile: - Ascent Rate: 2500ft/min - Ascent Speed: 250kts - Cruise Altitude: 20000ft - Cruise Speed: 420kts - Descent Rate: 1500ft/min - Descent Speed: 250kts Options: - Use NATs: yes - Use PACOTS: yes - Use low airways: yes - Use high airways: yes

Route

KTMB STRAP KEYW

ID Type Via Altitude (ft/m) Position (lat/lon) Dist (leg/tot) Name
O KTMB APT - 0 / 0 25.64780 / -80.43350 - / 0 nm Miami Executive Airport
STRAP FIX - 4,000 / 1,219 24.83200 / -81.58970 79 / 79 nm
O KEYW APT - 0 / 0 24.55610 / -81.75960 18 / 98 nm Key West Intl

Altitude Profile

Advertisement - Login to hide

KTMB

Details ICAO KTMB (TMB)
Name Miami Executive Airport
Region United States
Timezone America/New_York (UTC-5.0)
Stats Elevation 8 ft / 2 m (AMSL)
Location 25.647800° -80.433500°
Runways 3
Magnetic Variation 6.851° W

METAR

KTMB 010253Z 13006KT 10SM FEW020 BKN026 BKN045 26/21 A3013 RMK AO2 SLP202 T02560211 50003

Decode

TAF

KTMB 010304Z 0103/0124 11010KT P6SM SCT025 BKN035 FM011400 15012KT P6SM SCT030 BKN050

Decode

Departure Runways

ID Width Length Bearing (true/mag) Surface Threshold Overrun Markings Lighting
09L 150 ft / 46 m 5,008 ft / 1,526 m 87.28° / 94.13° ASPHALT 0 ft / 0 m 0 ft / 0 m APP EDGE THRESHOLD
09R 150 ft / 46 m 6,006 ft / 1,831 m 87.33° / 94.18° ASPHALT 0 ft / 0 m 184 ft / 56 m APP EDGE THRESHOLD MALSR
13 150 ft / 46 m 4,005 ft / 1,221 m 127.50° / 134.35° ASPHALT 0 ft / 0 m 0 ft / 0 m APP EDGE THRESHOLD
27L 150 ft / 46 m 6,006 ft / 1,831 m 267.34° / 274.19° ASPHALT 0 ft / 0 m 0 ft / 0 m APP EDGE THRESHOLD
27R 150 ft / 46 m 5,008 ft / 1,526 m 267.29° / 274.14° ASPHALT 0 ft / 0 m 0 ft / 0 m APP EDGE THRESHOLD
31 150 ft / 46 m 4,005 ft / 1,221 m 307.50° / 314.35° ASPHALT 0 ft / 0 m 0 ft / 0 m APP EDGE THRESHOLD

KEYW

Details ICAO KEYW (EYW)
Name Key West Intl
Region United States
Timezone America/New_York (UTC-5.0)
Stats Elevation 0 ft / 0 m (AMSL)
Location 24.556100° -81.759900°
Runways 1
Magnetic Variation 5.896° W

METAR

KEYW 010253Z AUTO 11018G23KT 10SM OVC021 26/22 A3009 RMK AO2 SLP190 T02560222 51008

Decode

TAF

KEYW 282330Z 0100/0124 11015G23KT P6SM SCT025 FM011400 14011G19KT P6SM FEW025 SCT035

Decode

Destination Runways

ID Width Length Bearing (true/mag) Surface Threshold Overrun Markings Lighting
09 98 ft / 30 m 5,080 ft / 1,548 m 89.38° / 95.27° ASPHALT 276 ft / 84 m 331 ft / 101 m APP EDGE THRESHOLD REIL-OMNI
27 98 ft / 30 m 5,080 ft / 1,548 m 269.38° / 275.28° ASPHALT 0 ft / 0 m 354 ft / 108 m APP EDGE THRESHOLD REIL-OMNI

Popular Alternatives